Logo AVAMET
Benvolgut visitant, si us plau, ingressa Recuperar contrasenya
AVAMET paisatges

Benicàssim poble

Dades diàries. Acumulats / Últims 30 dies disponibles

Data Temperatura (°C) Humitat rel. (%) Pressió rel. (hPa) Vent (km/h) Precipitació
Mínima Mitjana Màxima Amplitud
tèrmica
Mínima Mitjana Màxima Mínima Mitjana Màxima Predom. Mitjana Ràfega
màxima
Total
(mm)
Índex-n
Mínima Mitjana Màxima Mínima Mitjana Màxima n
0 a 1
P0 max
mm 5'
Dades mensuals acumulades fins l'últim dia disponible
04/2020 7,6 12,0 13,8 15,0 15,1 19,1 22,0 14,4 44 79 96 1.006 1.017 1.026   1,5 38,6 94,0
Dades anuals acumulades fins l'últim dia disponible
2020 4,3 9,8 15,8 13,3 10,3 17,6 24,7 20,4 23 74 97 993 1.020 1.033   2,0 70,8 388,2
Últims 30 dies disponibles
18-04-2020 13,8     16,7     21,7 7,9 66 84 94 1.012 1.015 1.016 SE 1,6 24,1 10,0 0,58 4,20
17-04-2020 13,6     15,8     19,3 5,7 71 85 92 1.014 1.016 1.018 SE 0,7 20,9 0,0
16-04-2020 11,2     15,9     20,9 9,7 64 82 92 1.016 1.018 1.019 SSE 0,2 12,9 0,0
15-04-2020 12,3     14,0     15,1 2,8 84 90 92 1.013 1.016 1.019 ESE 2,0 19,3 8,8 0,25 0,60
14-04-2020 13,8     15,9     20,3 6,5 63 81 91 1.011 1.012 1.014 E 3,5 24,1 0,0
13-04-2020 13,0     15,7     20,1 7,1 69 81 91 1.006 1.009 1.012 ESE 2,7 20,9 3,4 0,23 0,60
12-04-2020 11,7     16,4     22,0 10,3 44 70 86 1.012 1.017 1.021 SE 1,1 19,3 0,0
11-04-2020 13,5     16,3     20,7 7,2 49 68 83 1.020 1.021 1.023 S 0,5 11,3 0,0
10-04-2020 13,8     15,6     18,3 4,5 63 75 81 1.020 1.021 1.022 S 0,1 6,4 0,0
09-04-2020 12,7     16,0     20,0 7,3 63 76 85 1.020 1.021 1.023 SSE 0,3 12,9 0,0
08-04-2020 12,3     15,6     19,4 7,1 62 77 89 1.022 1.024 1.026 ESE 0,3 11,3 0,0
07-04-2020 12,8     15,3     19,2 6,4 51 79 91 1.024 1.025 1.026 SSE 0,2 9,7 0,4
06-04-2020 11,3     14,7     18,7 7,4 67 81 92 1.020 1.022 1.025 S 0,2 9,7 0,0
05-04-2020 10,1     13,6     18,2 8,1 64 80 89 1.018 1.020 1.021 SSE 0,2 9,7 0,0
04-04-2020 7,6     13,4     18,8 11,2 64 78 90 1.017 1.018 1.020 S 0,4 11,3 0,0
03-04-2020 10,3     13,6     17,8 7,5 58 74 89 1.013 1.015 1.018 SSE 0,2 11,3 0,0
02-04-2020 10,2     12,3     16,7 6,5 68 81 88 1.010 1.011 1.014 ESE 2,9 27,4 0,4
01-04-2020 11,4     13,2     16,9 5,5 61 83 96 1.008 1.010 1.012 E 10,4 38,6 71,0 0,34 2,20
31-03-2020 7,2     9,9     11,6 4,4 80 88 94 1.009 1.010 1.013 E 9,2 41,8 86,0 0,37 4,30
30-03-2020 7,8     12,0     15,4 7,6 51 63 85 1.011 1.012 1.014 SE 1,6 24,1 1,8
29-03-2020 9,2     15,3     20,7 11,5 34 58 77 1.012 1.014 1.017 S 0,8 12,9 0,0
28-03-2020 7,0     13,0     18,3 11,3 44 60 81 1.015 1.017 1.018 SE 1,4 25,7 0,0
27-03-2020 7,5     10,8     15,3 7,8 55 69 80 1.011 1.013 1.016 SE 2,2 20,9 0,0
26-03-2020 5,6     9,9     15,5 9,9 38 71 91 1.006 1.009 1.012 SE 3,7 38,6 0,0
25-03-2020 8,0     9,4     11,4 3,4 68 81 90 1.013 1.016 1.017 SE 2,5 19,3 5,0 0,42 0,40
24-03-2020 10,0     12,6     13,9 3,9 73 82 90 1.016 1.017 1.018 ENE 9,1 41,8 7,4 0,58 1,20
23-03-2020 12,3     14,1     18,5 6,2 78 86 92 1.014 1.016 1.018 ENE 5,0 30,6 4,4 0,42 0,40
22-03-2020 10,6     13,0     17,7 7,1 67 82 91 1.010 1.012 1.014 E 1,8 22,5 2,2 0,20
21-03-2020 11,3     13,2     15,6 4,3 69 78 86 1.011 1.013 1.017 E 2,3 16,1 0,0
20-03-2020 11,6     13,3     15,8 4,2 73 81 86 1.017 1.018 1.020 ENE 4,2 25,7 0,0
Últims 13 mesos disponibles
04/2020 7,6 12,0 13,8 15,0 15,1 19,1 22,0 14,4 68 79 90 1.009 1.017 1.025 SSE 1,5 38,6 94,0
03/2020 5,6 10,5 15,8 14,0 11,4 17,9 24,7 19,1 44 68 92 1.003 1.015 1.026 E 3,5 70,8 141,4
02/2020 7,1 10,0 12,6 13,9 15,0 18,7 23,3 16,2 50 73 86 1.011 1.024 1.031 S 0,7 37,0 0,4
01/2020 4,3 7,7 11,8 11,2 10,3 15,5 21,7 17,4 63 78 93 1.017 1.024 1.031 S 2,0 61,2 152,4
12/2019 7,6 10,4 16,4 13,7 12,9 17,7 25,6 18,0 44 73 89 999 1.017 1.032 S 2,3 72,4 118,4
11/2019 7,7 11,8 17,8 15,6 15,5 19,8 27,2 19,5 37 54 77 995 1.008 1.016 SSE 3,1 67,6 3,8
10/2019 11,3 16,7 20,8 20,4 17,7 24,4 27,9 16,6 45 71 87 1.005 1.015 1.020 S 1,4 54,7 27,4
09/2019 16,2 20,7 23,2 23,9 22,1 27,7 32,1 15,9 46 70 83 1.008 1.016 1.024 SE 3,1 59,5 73,8
08/2019 18,0 22,9 25,6 26,5 27,0 30,5 35,2 17,2 51 71 83 1.009 1.014 1.019 SSE 1,8 53,1 19,2
07/2019 21,8 23,2 25,4 27,0 28,5 30,9 33,6 11,8 47 65 79 1.004 1.012 1.020 SSE 1,8 45,1 13,2
06/2019 13,7 18,8 23,1 22,7 22,2 26,8 36,0 22,3 40 63 79 1.006 1.014 1.020 SE 2,5 40,2 0,0
05/2019 10,2 14,8 17,9 18,5 19,1 22,4 28,8 18,6 48 65 83 1.003 1.014 1.023 S 1,9 56,3 14,8
04/2019 7,0 11,8 14,6 15,4 15,7 19,4 26,4 19,4 45 64 88 997 1.011 1.024 S 4,1 56,3 48,6
Tots els anys disponibles
2019 3,6 14,8 25,6 18,6 11,7 22,7 36,0 32,4 30 65 89 991 1.015 1.033 SSE 2,4 96,6 335,4
2018 3,4 14,9 27,0 18,5 9,1 22,4 34,7 31,3 36 69 90 998 1.016 1.034 ENE 2,2 77,2 514,8
2017 4,3 9,7 17,9 13,2 9,1 17,2 27,0 22,7 29 58 84 994 1.020 1.034 NW 2,1 82,1 247,0
2016 3,8 15,4 24,9 18,6 11,1 22,2 32,9 29,1 2,3 70,8 409,2
2015 2,6 15,3 22,6 18,7 20,9 22,5 34,8 32,2 2,6 83,7 450,6
Temperatura (°C)
Humitat relativa (%)
Velocitat del vent i ràfega màxima (km/h)
Direcció del vent (°)
Pressió (hPa)
Precipitació (mm)
Nota sobre les dades: s'avisa a l'usuari de la provisionalitat i no oficialitat d'aquestes dades
Logo AVAMET blanc
Web allotjada a Sollutia
Llicència de Creative CommonsLa web d'AVAMET i els seus continguts estan subjectes a una llicència de
Reconeixement - No Comercial - Compartir igual
Últimes estacions: Sueca - Mareny de Barraquetes (Inforatge), La Vilavella - Centre (Ajuntament Soci), Alfondeguilla (Soci), Santa Magdalena de Polpís (Soci),  Benafigos (Aj. Soci), Carlet - Ajuntament (Inforatge), Montroi (Inforatge), Bronchales (Limítrofe-Terol/Aj. Soci), Sueca - Muntanyeta dels Sants (Inforatge), Vilamarxant - Ajuntament (Aj. Soci/Inforatge) - - -